Time;durP1;ratioP1;P1;durP2;ratioP2;P2;SDS_P1;SDS_P2;PMS_P1;PMS_P2;Temp;Humidity;BMP_temperature;BMP_pressure;BME280_temperature;BME280_humidity;BME280_pressure;Samples;Min_cycle;Max_cycle;Signal;HPM_P1;HPM_P2
2023/07/04 00:00:07;;;;;;;8.35;2.13;;;;;;;15.10;100.00;100893.66;5071990;28;20123;-50
2023/07/04 00:02:33;;;;;;;6.88;2.03;;;;;;;14.90;100.00;100904.41;5073163;28;20483;-53
2023/07/04 00:04:59;;;;;;;7.88;2.20;;;;;;;14.62;100.00;100917.28;5055174;28;20070;-49
2023/07/04 00:07:25;;;;;;;10.95;2.20;;;;;;;14.38;100.00;100945.78;5073026;28;20590;-50
2023/07/04 00:09:51;;;;;;;10.43;2.88;;;;;;;13.90;100.00;100892.38;5071817;28;20107;-51
2023/07/04 00:12:16;;;;;;;6.38;2.30;;;;;;;14.01;100.00;100943.88;5073039;28;20121;-49
2023/07/04 00:14:44;;;;;;;10.20;2.65;;;;;;;13.77;100.00;100929.13;5054866;28;20098;-52
2023/07/04 00:17:09;;;;;;;11.63;2.92;;;;;;;13.68;100.00;100924.22;5064441;28;20048;-49
2023/07/04 00:19:34;;;;;;;9.23;2.47;;;;;;;13.61;100.00;100925.41;5053089;28;20472;-48
2023/07/04 00:22:00;;;;;;;9.23;2.60;;;;;;;13.16;100.00;100866.59;5052952;28;20037;-49
2023/07/04 00:24:25;;;;;;;6.40;2.63;;;;;;;13.10;100.00;100857.13;5052642;28;20045;-50
2023/07/04 00:26:50;;;;;;;5.57;2.28;;;;;;;13.05;100.00;100855.59;5052470;28;20075;-47
2023/07/04 00:29:17;;;;;;;12.75;2.50;;;;;;;13.42;100.00;100927.13;5051973;28;20033;-47
2023/07/04 00:31:42;;;;;;;10.45;2.53;;;;;;;13.32;100.00;100915.22;5052169;28;20029;-49
2023/07/04 00:34:08;;;;;;;12.52;2.40;;;;;;;13.37;100.00;100921.16;5051912;28;20044;-47
2023/07/04 00:36:34;;;;;;;8.35;2.25;;;;;;;13.01;100.00;100865.41;5052601;28;20036;-50
2023/07/04 00:39:00;;;;;;;11.40;2.30;;;;;;;13.02;100.00;100879.50;5051257;28;20071;-52
2023/07/04 00:41:27;;;;;;;8.73;2.35;;;;;;;13.32;100.00;100917.84;5052515;28;20377;-49
2023/07/04 00:44:12;;;;;;;6.47;1.80;;;;;;;13.38;100.00;100951.97;5052236;28;20140;-50
2023/07/04 00:47:32;;;;;;;7.72;2.38;;;;;;;12.93;100.00;100867.50;5052527;28;20029;-51
2023/07/04 00:49:57;;;;;;;4.43;1.67;;;;;;;13.39;100.00;100944.00;5065074;28;20071;-49
2023/07/04 00:52:34;;;;;;;5.68;2.00;;;;;;;13.39;100.00;100925.50;5072087;28;20066;-49
2023/07/04 00:55:07;;;;;;;8.95;2.50;;;;;;;13.41;100.00;100925.41;5072057;28;20462;-51
2023/07/04 00:57:33;;;;;;;8.25;2.50;;;;;;;13.29;100.00;100905.63;5054592;28;20058;-49
2023/07/04 01:00:10;;;;;;;9.95;2.20;;;;;;;13.05;100.00;100858.22;5072046;28;20037;-49
2023/07/04 01:02:37;;;;;;;9.50;2.10;;;;;;;13.02;100.00;100847.78;5072151;28;20099;-49
2023/07/04 01:05:03;;;;;;;8.90;2.58;;;;;;;12.99;100.00;100833.75;5056522;28;20484;-50
2023/07/04 01:07:35;;;;;;;5.80;2.15;;;;;;;13.00;100.00;100845.19;5034484;28;20087;-48
2023/07/04 01:10:37;;;;;;;6.85;1.90;;;;;;;13.42;100.00;100914.78;5050866;28;20116;-48
2023/07/04 01:13:02;;;;;;;5.55;2.22;;;;;;;13.07;100.00;100857.22;5031109;28;20048;-52
2023/07/04 01:15:29;;;;;;;11.68;2.40;;;;;;;13.26;100.00;100897.84;5052068;28;20033;-50
2023/07/04 01:17:56;;;;;;;6.38;1.65;;;;;;;12.81;100.00;100831.03;5050978;28;20040;-50
2023/07/04 01:20:23;;;;;;;7.45;2.30;;;;;;;13.19;100.00;100909.56;5052202;28;20029;-50
2023/07/04 01:23:03;;;;;;;6.57;2.20;;;;;;;13.12;100.00;100894.06;5045875;28;20032;-52
2023/07/04 01:25:43;;;;;;;5.32;1.40;;;;;;;13.05;100.00;100901.34;5053596;28;20056;-49
2023/07/04 01:28:09;;;;;;;5.97;1.48;;;;;;;13.07;100.00;100896.00;5071947;28;20055;-51
2023/07/04 01:30:38;;;;;;;3.38;1.15;;;;;;;12.68;100.00;100843.88;5071952;28;20471;-48
2023/07/04 01:33:04;;;;;;;3.13;1.33;;;;;;;13.03;100.00;100908.47;5056071;28;20047;-50
2023/07/04 01:35:32;;;;;;;5.43;1.27;;;;;;;12.68;100.00;100857.09;5074560;28;20037;-51
2023/07/04 01:37:59;;;;;;;4.30;1.33;;;;;;;12.64;100.00;100858.13;5058334;28;20034;-51
2023/07/04 01:40:24;;;;;;;3.55;1.10;;;;;;;13.00;100.00;100905.97;5074584;28;20052;-48
2023/07/04 01:42:50;;;;;;;5.00;1.55;;;;;;;12.63;100.00;100843.22;5057817;28;20025;-50
2023/07/04 01:45:15;;;;;;;5.47;1.48;;;;;;;12.67;100.00;100855.34;5075895;28;20441;-50
2023/07/04 01:47:41;;;;;;;6.15;1.30;;;;;;;12.95;100.00;100906.16;5075776;28;20059;-47
2023/07/04 01:50:08;;;;;;;7.90;1.98;;;;;;;12.93;100.00;100893.91;5075683;28;20064;-49
2023/07/04 01:52:33;;;;;;;4.68;1.40;;;;;;;13.08;100.00;100913.59;5075474;28;20309;-49
2023/07/04 01:54:59;;;;;;;2.70;1.15;;;;;;;12.81;100.00;100854.81;5056427;28;20054;-48
2023/07/04 01:57:24;;;;;;;6.00;1.80;;;;;;;13.02;100.00;100888.25;5075377;28;20111;-49
2023/07/04 01:59:50;;;;;;;3.75;1.30;;;;;;;13.28;100.00;100919.75;5075685;28;20143;-50
2023/07/04 02:02:15;;;;;;;7.97;2.58;;;;;;;12.99;100.00;100878.66;5075519;28;20063;-50
2023/07/04 02:04:41;;;;;;;4.68;1.48;;;;;;;13.38;100.00;100928.19;5057726;28;20044;-51
2023/07/04 02:07:07;;;;;;;4.82;1.30;;;;;;;13.47;100.00;100926.00;5075121;28;20393;-50
2023/07/04 02:09:32;;;;;;;7.75;1.45;;;;;;;13.54;100.00;100921.31;5075115;28;20486;-49
2023/07/04 02:11:58;;;;;;;8.82;1.60;;;;;;;13.49;100.00;100905.63;5057008;28;20123;-49
2023/07/04 02:14:24;;;;;;;8.73;1.48;;;;;;;13.08;100.00;100835.19;5073980;28;20377;-48
2023/07/04 02:16:50;;;;;;;4.30;1.85;;;;;;;13.22;100.00;100864.50;5074017;28;20040;-49
2023/07/04 02:19:15;;;;;;;5.05;1.55;;;;;;;13.61;100.00;100927.19;5057190;28;20028;-52
2023/07/04 02:21:41;;;;;;;5.05;1.75;;;;;;;13.64;100.00;100932.34;5074782;28;20029;-47
2023/07/04 02:24:06;;;;;;;6.22;1.70;;;;;;;13.72;100.00;100940.84;5074784;28;20059;-47
2023/07/04 02:26:32;;;;;;;4.38;1.55;;;;;;;13.73;100.00;100931.94;5056789;28;20037;-50
2023/07/04 02:28:58;;;;;;;5.85;1.50;;;;;;;13.34;100.00;100865.78;5074929;28;20037;-52
2023/07/04 02:31:24;;;;;;;8.65;1.45;;;;;;;13.28;100.00;100842.28;5056948;28;20039;-50
2023/07/04 02:33:50;;;;;;;4.28;1.48;;;;;;;13.32;100.00;100857.06;5053574;28;20400;-48
2023/07/04 02:36:16;;;;;;;6.85;1.40;;;;;;;13.75;100.00;100928.31;5054779;28;20098;-48
2023/07/04 02:38:41;;;;;;;5.53;1.75;;;;;;;13.81;100.00;100933.31;5054603;28;20136;-50
2023/07/04 02:41:07;;;;;;;6.13;1.90;;;;;;;13.84;100.00;100941.13;5036607;28;20358;-50
2023/07/04 02:43:34;;;;;;;6.45;1.77;;;;;;;13.43;100.00;100879.47;5036339;28;20029;-50
2023/07/04 02:46:00;;;;;;;6.60;1.95;;;;;;;13.81;100.00;100945.69;5054330;28;20454;-50
2023/07/04 02:48:26;;;;;;;8.00;1.88;;;;;;;13.68;100.00;100929.53;5068664;28;20124;-51
2023/07/04 02:50:51;;;;;;;5.13;1.50;;;;;;;13.75;100.00;100946.81;5056708;28;20117;-52
2023/07/04 02:53:21;;;;;;;6.97;1.80;;;;;;;13.33;100.00;100874.66;5056476;28;20542;-50
2023/07/04 02:55:47;;;;;;;7.38;1.95;;;;;;;13.22;100.00;100864.50;5074236;28;20119;-52
2023/07/04 02:58:13;;;;;;;6.18;2.00;;;;;;;13.61;100.00;100941.28;5074531;28;20091;-50
2023/07/04 03:00:38;;;;;;;6.03;1.85;;;;;;;13.65;100.00;100942.88;5074421;28;20077;-48
2023/07/04 03:03:03;;;;;;;7.97;2.10;;;;;;;13.64;100.00;100948.22;5074178;28;20028;-50
2023/07/04 03:05:29;;;;;;;10.30;2.00;;;;;;;13.20;100.00;100878.72;5073032;28;20396;-51
2023/07/04 03:07:54;;;;;;;9.32;1.98;;;;;;;13.64;100.00;100958.78;5073954;28;20491;-49
2023/07/04 03:10:19;;;;;;;6.60;1.70;;;;;;;13.21;100.00;100878.69;5056226;28;20135;-50
2023/07/04 03:12:45;;;;;;;9.55;2.42;;;;;;;13.55;100.00;100930.97;5074218;28;20082;-50
2023/07/04 03:15:10;;;;;;;5.22;1.85;;;;;;;13.65;100.00;100944.66;5073901;28;20541;-49
2023/07/04 03:17:36;;;;;;;5.80;1.95;;;;;;;13.57;100.00;100937.06;5074049;28;20163;-49
2023/07/04 03:20:08;;;;;;;8.02;2.17;;;;;;;13.24;100.00;100873.25;5056093;28;20090;-48
2023/07/04 03:22:33;;;;;;;8.13;2.15;;;;;;;13.67;100.00;100956.88;5055988;28;20036;-52
2023/07/04 03:24:59;;;;;;;9.32;2.45;;;;;;;13.67;100.00;100954.25;5054154;28;20052;-48
2023/07/04 03:27:24;;;;;;;5.00;1.60;;;;;;;13.27;100.00;100880.19;5054135;28;20029;-49
2023/07/04 03:29:49;;;;;;;7.03;1.92;;;;;;;13.68;100.00;100950.69;5053855;28;20037;-51
2023/07/04 03:32:15;;;;;;;11.88;2.00;;;;;;;13.74;100.00;100953.06;5053768;28;20041;-50
2023/07/04 03:34:41;;;;;;;6.00;1.95;;;;;;;13.82;100.00;100961.50;5053730;28;20037;-52
2023/07/04 03:37:06;;;;;;;7.68;2.25;;;;;;;13.68;100.00;100933.94;5035243;28;20037;-50
2023/07/04 03:39:31;;;;;;;7.88;2.58;;;;;;;13.73;100.00;100942.53;5052587;28;20095;-48
2023/07/04 03:41:57;;;;;;;7.20;2.25;;;;;;;13.69;100.00;100944.44;5053786;28;20029;-49
2023/07/04 03:44:22;;;;;;;10.43;2.08;;;;;;;13.64;100.00;100930.56;5053417;28;20032;-49
2023/07/04 03:46:47;;;;;;;7.75;2.03;;;;;;;13.86;100.00;100964.91;5053485;28;20036;-51
2023/07/04 03:49:13;;;;;;;6.60;1.80;;;;;;;13.40;100.00;100882.25;5053339;28;20028;-48
2023/07/04 03:51:38;;;;;;;10.82;2.80;;;;;;;13.78;100.00;100946.69;5053388;28;20041;-49
2023/07/04 03:54:03;;;;;;;7.00;2.22;;;;;;;13.49;100.00;100891.56;5065485;28;20048;-48
2023/07/04 03:56:28;;;;;;;9.27;2.22;;;;;;;13.47;100.00;100894.28;5072991;28;20419;-51
2023/07/04 03:58:54;;;;;;;10.55;2.50;;;;;;;13.72;100.00;100943.47;5073228;28;20041;-51
2023/07/04 04:01:20;;;;;;;6.20;2.40;;;;;;;13.69;100.00;100941.78;5055214;28;20062;-49
2023/07/04 04:03:45;;;;;;;6.82;1.98;;;;;;;13.71;100.00;100969.06;5072929;28;20037;-50
2023/07/04 04:06:10;;;;;;;8.63;2.05;;;;;;;13.55;100.00;100933.59;5072598;28;20079;-52
2023/07/04 04:08:36;;;;;;;7.85;2.20;;;;;;;13.57;100.00;100949.41;5071904;28;20060;-49
2023/07/04 04:11:02;;;;;;;8.02;2.67;;;;;;;13.07;100.00;100888.06;5072759;28;20115;-48
2023/07/04 04:13:29;;;;;;;7.85;2.25;;;;;;;13.07;100.00;100888.06;5072922;28;20060;-51
2023/07/04 04:15:55;;;;;;;5.88;2.08;;;;;;;13.49;100.00;100968.25;5072931;28;20033;-54
2023/07/04 04:18:20;;;;;;;9.70;2.30;;;;;;;13.03;100.00;100879.41;5054751;28;20078;-49
2023/07/04 04:20:45;;;;;;;8.48;2.63;;;;;;;13.13;100.00;100887.84;5072637;28;20127;-49
2023/07/04 04:23:12;;;;;;;9.73;2.25;;;;;;;13.25;100.00;100895.28;5055043;28;20040;-52
2023/07/04 04:25:40;;;;;;;10.50;3.20;;;;;;;13.29;100.00;100884.50;5053504;28;20538;-50
2023/07/04 04:28:06;;;;;;;9.25;2.67;;;;;;;13.84;100.00;100956.16;5051690;28;20033;-50
2023/07/04 04:30:31;;;;;;;8.80;2.03;;;;;;;13.93;100.00;100963.69;5052816;28;20553;-49
2023/07/04 04:32:57;;;;;;;9.00;2.35;;;;;;;13.94;100.00;100955.69;5052263;28;20527;-49
2023/07/04 04:35:22;;;;;;;5.57;1.90;;;;;;;13.77;100.00;100923.81;5052431;28;20068;-50
2023/07/04 04:37:47;;;;;;;10.93;2.78;;;;;;;14.01;100.00;100964.19;5051031;28;20044;-49
2023/07/04 04:40:13;;;;;;;10.20;2.42;;;;;;;14.03;100.00;100962.34;5057738;28;20555;-50
2023/07/04 04:42:39;;;;;;;10.27;2.20;;;;;;;13.67;100.00;100901.34;5054602;28;20059;-50
2023/07/04 04:45:08;;;;;;;8.57;2.40;;;;;;;13.57;100.00;100886.81;5072540;28;20036;-53
2023/07/04 04:47:33;;;;;;;10.52;2.70;;;;;;;13.98;100.00;100959.06;5072497;28;20043;-55
2023/07/04 04:50:00;;;;;;;8.05;2.20;;;;;;;13.99;100.00;100956.34;5054505;28;20040;-50
2023/07/04 04:52:29;;;;;;;8.88;2.38;;;;;;;13.57;100.00;100889.47;5072074;28;20043;-50
2023/07/04 04:54:55;;;;;;;10.40;2.60;;;;;;;13.51;100.00;100877.34;5054413;28;20527;-50
2023/07/04 04:57:20;;;;;;;10.80;3.08;;;;;;;13.79;100.00;100915.81;5071122;28;20040;-49
2023/07/04 04:59:47;;;;;;;16.02;2.95;;;;;;;14.04;100.00;100943.75;5054754;28;20025;-48
2023/07/04 05:02:13;;;;;;;7.53;2.10;;;;;;;14.22;100.00;100962.38;5053135;28;20044;-52
2023/07/04 05:04:38;;;;;;;7.25;2.20;;;;;;;14.29;100.00;100966.47;5071964;28;20360;-49
2023/07/04 05:07:04;;;;;;;11.90;2.80;;;;;;;14.35;100.00;100953.00;5071133;28;20131;-52
2023/07/04 05:09:30;;;;;;;9.50;2.85;;;;;;;14.44;100.00;100964.03;5071989;28;20028;-50
2023/07/04 05:11:56;;;;;;;8.57;2.00;;;;;;;14.63;100.00;100974.59;5072386;28;20036;-47
2023/07/04 05:14:21;;;;;;;11.20;2.13;;;;;;;14.73;100.00;100970.59;5072063;28;20541;-49
2023/07/04 05:16:46;;;;;;;5.65;2.10;;;;;;;14.75;100.00;100946.66;5033961;28;20036;-50
2023/07/04 05:19:12;;;;;;;9.02;2.38;;;;;;;15.02;100.00;100975.38;5050735;28;20064;-50
2023/07/04 05:21:37;;;;;;;17.17;2.55;;;;;;;15.15;100.00;100986.22;5052082;28;20040;-50
2023/07/04 05:24:03;;;;;;;8.73;2.33;;;;;;;15.27;100.00;100988.28;5050518;28;20041;-51
2023/07/04 05:26:28;;;;;;;8.82;2.22;;;;;;;15.37;100.00;100978.06;5051783;28;20032;-48
2023/07/04 05:28:56;;;;;;;7.72;2.20;;;;;;;15.33;100.00;100964.09;5051822;28;20032;-50
2023/07/04 05:31:29;;;;;;;7.53;2.10;;;;;;;15.28;100.00;100975.88;5051833;28;20033;-52
2023/07/04 05:33:56;;;;;;;8.30;2.25;;;;;;;15.25;100.00;100998.09;5051619;28;20488;-49
2023/07/04 05:36:29;;;;;;;8.63;2.20;;;;;;;15.19;100.00;100995.75;5051341;28;20033;-52
2023/07/04 05:38:59;;;;;;;5.43;1.83;;;;;;;15.18;100.00;100994.03;5072006;28;20048;-49
2023/07/04 05:41:25;;;;;;;12.38;2.42;;;;;;;14.99;100.00;100964.91;5070604;28;20025;-51
2023/07/04 05:43:53;;;;;;;8.05;2.50;;;;;;;15.23;100.00;101008.78;5070598;28;20379;-51
2023/07/04 05:46:19;;;;;;;9.38;2.53;;;;;;;14.95;100.00;100920.06;5071999;28;20037;-51
2023/07/04 05:48:44;;;;;;;5.35;2.10;;;;;;;15.47;100.00;100969.59;5071875;28;20507;-51
2023/07/04 05:51:11;;;;;;;11.80;2.92;;;;;;;15.43;100.00;100946.81;5069009;28;20579;-49
2023/07/04 05:53:38;;;;;;;10.85;2.53;;;;;;;15.98;100.00;100997.94;5070312;28;20115;-50
2023/07/04 05:56:08;;;;;;;7.97;2.55;;;;;;;15.82;100.00;100941.25;5071239;28;20044;-49
2023/07/04 05:58:35;;;;;;;7.00;2.37;;;;;;;15.99;100.00;100962.50;5071589;28;20032;-51
2023/07/04 06:01:16;;;;;;;7.35;2.40;;;;;;;16.34;100.00;101016.41;5071403;28;20384;-49
2023/07/04 06:03:43;;;;;;;14.55;3.45;;;;;;;16.36;100.00;101019.81;5071676;28;20068;-50
2023/07/04 06:06:24;;;;;;;10.35;3.33;;;;;;;15.93;100.00;100941.56;5071352;28;20099;-54
2023/07/04 06:08:50;;;;;;;8.93;2.50;;;;;;;16.49;100.00;101020.03;5066585;28;20041;-51
2023/07/04 06:11:16;;;;;;;10.85;2.70;;;;;;;16.64;100.00;101001.47;5034990;28;20060;-50
2023/07/04 06:13:42;;;;;;;10.52;2.25;;;;;;;16.84;100.00;101005.72;5071369;28;20037;-53
2023/07/04 06:16:07;;;;;;;7.95;2.60;;;;;;;16.70;100.00;100961.25;5071636;28;20032;-52
2023/07/04 06:18:33;;;;;;;10.85;2.78;;;;;;;17.09;100.00;101024.66;5072557;28;20028;-53
2023/07/04 06:21:10;;;;;;;8.45;2.53;;;;;;;17.10;100.00;101028.19;5074841;28;20054;-52
2023/07/04 06:23:36;;;;;;;8.27;2.33;;;;;;;16.97;100.00;101021.81;5075113;28;20035;-50
2023/07/04 06:26:02;;;;;;;10.45;2.58;;;;;;;17.01;100.00;101044.66;5074888;28;20474;-49
2023/07/04 06:28:27;;;;;;;12.23;2.70;;;;;;;16.80;100.00;101036.91;5075166;28;20078;-51
2023/07/04 06:30:52;;;;;;;6.68;2.22;;;;;;;16.68;100.00;101053.53;5052769;28;20040;-47
2023/07/04 06:33:17;;;;;;;11.27;3.67;;;;;;;16.53;100.00;101048.13;5054893;28;20033;-51
2023/07/04 06:35:43;;;;;;;12.88;2.90;;;;;;;15.98;100.00;100974.03;5053744;28;20174;-49
2023/07/04 06:38:09;;;;;;;7.90;2.30;;;;;;;16.23;100.00;101050.59;5054633;28;20119;-55
2023/07/04 06:40:35;;;;;;;7.43;2.53;;;;;;;16.16;100.00;101065.16;5054503;28;20037;-52
2023/07/04 06:43:00;;;;;;;14.88;3.03;;;;;;;16.15;100.00;101043.06;5054780;28;20048;-51
2023/07/04 06:45:25;;;;;;;10.90;2.55;;;;;;;16.05;100.00;101046.28;5054219;28;20036;-52
2023/07/04 06:47:51;;;;;;;10.90;2.92;;;;;;;16.15;100.00;101064.31;5074859;28;20050;-51
2023/07/04 06:50:16;;;;;;;9.23;2.35;;;;;;;16.17;100.00;101049.13;5074752;28;20055;-51
2023/07/04 06:52:41;;;;;;;8.45;2.85;;;;;;;16.15;100.00;101050.16;5074496;28;20037;-54
2023/07/04 06:55:07;;;;;;;7.70;2.38;;;;;;;16.22;100.00;101041.81;5074526;28;20045;-53
2023/07/04 06:57:33;;;;;;;11.85;3.13;;;;;;;16.39;100.00;101058.66;5074773;28;20045;-51
2023/07/04 06:59:58;;;;;;;11.35;2.97;;;;;;;16.60;100.00;101053.09;5074479;28;20036;-51
2023/07/04 07:02:24;;;;;;;8.20;2.53;;;;;;;16.66;100.00;101054.56;5073796;28;20037;-52
2023/07/04 07:04:49;;;;;;;9.40;2.88;;;;;;;16.80;100.00;101075.94;5054141;28;20399;-52
2023/07/04 07:07:15;;;;;;;10.88;2.88;;;;;;;16.76;100.00;101059.28;5036228;28;20041;-52
2023/07/04 07:09:41;;;;;;;13.15;3.53;;;;;;;16.96;100.00;101073.31;5054155;28;20039;-52
2023/07/04 07:12:11;;;;;;;9.02;2.80;;;;;;;17.07;100.00;101061.13;5054230;28;20120;-51
2023/07/04 07:14:37;;;;;;;6.25;2.60;;;;;;;17.43;100.00;101075.00;5054311;28;20072;-49
2023/07/04 07:17:03;;;;;;;7.88;3.25;;;;;;;17.51;100.00;101034.66;5053980;28;20036;-49
2023/07/04 07:19:29;;;;;;;9.32;2.78;;;;;;;17.87;100.00;101075.13;5054059;28;20405;-50
2023/07/04 07:21:55;;;;;;;7.85;2.05;;;;;;;17.59;100.00;101027.13;5053347;28;20033;-50
2023/07/04 07:24:20;;;;;;;9.02;2.50;;;;;;;17.84;100.00;101058.47;5066088;28;20153;-50
2023/07/04 07:26:46;;;;;;;9.90;2.72;;;;;;;18.21;100.00;101074.00;5073943;28;20090;-51
2023/07/04 07:29:11;;;;;;;9.57;2.65;;;;;;;18.28;100.00;101029.16;5073925;28;20041;-49
2023/07/04 07:31:36;;;;;;;7.60;2.90;;;;;;;19.03;100.00;101095.59;5071802;28;20037;-48
2023/07/04 07:34:03;;;;;;;13.30;2.45;;;;;;;19.36;100.00;101105.91;5055714;28;20082;-50
2023/07/04 07:36:30;;;;;;;10.15;2.53;;;;;;;19.22;100.00;101093.44;5073695;28;20150;-50
2023/07/04 07:38:57;;;;;;;10.30;2.88;;;;;;;18.65;100.00;101052.63;5073700;28;20472;-49
2023/07/04 07:41:28;;;;;;;10.35;2.65;;;;;;;18.79;100.00;101097.13;5073818;28;20039;-50
2023/07/04 07:43:53;;;;;;;8.63;2.58;;;;;;;18.77;100.00;101099.88;5073747;28;20130;-53
2023/07/04 07:46:19;;;;;;;9.23;2.80;;;;;;;19.00;100.00;101104.63;5055573;28;20037;-52
2023/07/04 07:48:45;;;;;;;8.98;3.35;;;;;;;18.67;100.00;101033.88;5072365;28;20037;-49
2023/07/04 07:51:12;;;;;;;9.57;3.00;;;;;;;18.51;100.00;101031.31;5073382;28;20033;-49
2023/07/04 07:53:41;;;;;;;12.27;2.88;;;;;;;18.54;100.00;101073.78;5055445;28;20040;-51
2023/07/04 07:56:09;;;;;;;7.18;2.45;;;;;;;18.77;100.00;101109.66;5073073;28;20048;-51
2023/07/04 07:58:34;;;;;;;6.32;2.10;;;;;;;18.70;100.00;101116.34;5073564;28;20044;-54
2023/07/04 08:01:09;;;;;;;9.10;2.38;;;;;;;18.99;100.00;101100.25;5073393;28;20403;-50
2023/07/04 08:03:34;;;;;;;9.85;2.25;;;;;;;19.53;100.00;101103.03;5073158;28;20025;-47
2023/07/04 08:05:59;;;;;;;10.65;2.38;;;;;;;19.98;100.00;101083.09;5058573;28;20122;-48
2023/07/04 08:08:25;;;;;;;10.15;2.35;;;;;;;20.20;100.00;101078.00;5035350;28;20041;-51
2023/07/04 08:10:50;;;;;;;7.43;2.05;;;;;;;21.19;100.00;101126.28;5053151;28;20040;-50
2023/07/04 08:13:17;;;;;;;7.07;2.53;;;;;;;21.44;100.00;101135.22;5052910;28;20045;-51
2023/07/04 08:15:42;;;;;;;7.97;2.38;;;;;;;21.31;100.00;101112.03;5052939;28;20068;-52
2023/07/04 08:18:09;;;;;;;8.60;2.15;;;;;;;21.29;100.00;101094.34;5051732;28;20547;-50
2023/07/04 08:20:35;;;;;;;10.90;3.08;;;;;;;21.50;100.00;101130.28;5052840;28;20435;-49
2023/07/04 08:23:01;;;;;;;7.82;2.17;;;;;;;21.58;100.00;101141.28;5070890;28;20032;-50
2023/07/04 08:25:26;;;;;;;9.48;2.78;;;;;;;21.72;100.00;101108.13;5071537;28;20062;-48
2023/07/04 08:27:52;;;;;;;9.05;2.47;;;;;;;21.39;100.00;101090.06;5054905;28;20074;-49
2023/07/04 08:30:17;;;;;;;9.68;1.88;;;;;;;21.30;100.00;101145.13;5072715;28;20443;-49
2023/07/04 08:32:43;;;;;;;9.20;2.35;;;;;;;20.85;100.00;101143.00;5072787;28;20045;-50
2023/07/04 08:35:08;;;;;;;11.23;2.53;;;;;;;20.06;100.00;101088.78;5054603;28;20068;-50
2023/07/04 08:37:33;;;;;;;10.88;3.17;;;;;;;19.86;100.00;101108.81;5060143;28;20067;-51
2023/07/04 08:39:59;;;;;;;7.25;2.88;;;;;;;19.84;100.00;101133.94;5052648;28;20036;-53
2023/07/04 08:42:26;;;;;;;6.55;2.45;;;;;;;19.30;100.00;101084.94;5052832;28;20040;-49
2023/07/04 08:44:52;;;;;;;10.48;2.35;;;;;;;19.43;100.00;101076.09;5051828;28;20064;-51
2023/07/04 08:47:25;;;;;;;7.82;2.55;;;;;;;19.98;100.00;101133.88;5052335;28;20056;-52
2023/07/04 08:50:11;;;;;;;9.68;3.08;;;;;;;20.18;100.00;101147.63;5052275;28;20472;-51
2023/07/04 08:53:10;;;;;;;8.05;2.78;;;;;;;20.41;100.00;101156.78;5050845;28;20033;-53
2023/07/04 08:55:43;;;;;;;9.68;2.28;;;;;;;20.42;100.00;101160.31;5002271;28;20045;-48
2023/07/04 08:58:09;;;;;;;12.57;2.70;;;;;;;20.04;100.00;101162.84;5052265;28;20197;-51
2023/07/04 09:00:36;;;;;;;8.48;2.70;;;;;;;19.93;100.00;101155.56;5052464;28;20059;-49
2023/07/04 09:03:28;;;;;;;9.20;3.50;;;;;;;19.51;100.00;101089.78;5052254;28;20028;-51
2023/07/04 09:06:27;;;;;;;9.50;3.00;;;;;;;19.67;100.00;101151.91;5051598;28;20059;-49
2023/07/04 09:09:16;;;;;;;11.98;2.80;;;;;;;19.53;100.00;101151.94;5052171;28;20021;-50
2023/07/04 09:11:42;;;;;;;7.55;2.60;;;;;;;19.70;100.00;101155.34;5051049;28;20037;-50
2023/07/04 09:14:23;;;;;;;8.85;2.90;;;;;;;19.89;100.00;101155.84;5034069;28;20091;-50
2023/07/04 09:16:48;;;;;;;8.25;2.55;;;;;;;19.85;100.00;101103.59;5034089;28;20061;-52
2023/07/04 09:19:18;;;;;;;7.78;2.60;;;;;;;20.20;100.00;101110.06;5034383;28;20109;-46
2023/07/04 09:21:44;;;;;;;8.10;2.55;;;;;;;20.82;100.00;101161.09;5050137;28;20029;-47
2023/07/04 09:24:10;;;;;;;6.18;2.13;;;;;;;21.03;100.00;101162.25;5051937;28;20391;-50
2023/07/04 09:26:42;;;;;;;6.22;1.92;;;;;;;21.06;100.00;101191.50;5034224;28;20048;-51
2023/07/04 09:29:08;;;;;;;10.65;2.65;;;;;;;20.88;100.00;101187.41;5050648;28;20036;-49
2023/07/04 09:31:36;;;;;;;7.13;2.70;;;;;;;20.69;100.00;101177.16;5051721;28;20037;-49
2023/07/04 09:34:05;;;;;;;10.00;2.40;;;;;;;20.58;100.00;101163.63;5034068;28;20036;-51
2023/07/04 09:36:33;;;;;;;6.65;2.60;;;;;;;20.54;100.00;101154.13;5034171;28;20028;-50
2023/07/04 09:39:06;;;;;;;8.25;2.58;;;;;;;20.38;100.00;101127.56;5050281;28;20045;-48
2023/07/04 09:41:33;;;;;;;6.53;2.22;;;;;;;20.46;100.00;101127.06;5051844;28;20029;-49
2023/07/04 09:44:16;;;;;;;10.02;2.60;;;;;;;20.53;100.00;101139.03;5050513;28;20033;-52
2023/07/04 09:46:52;;;;;;;4.97;2.05;;;;;;;20.69;100.00;101194.03;5034046;28;20039;-50
2023/07/04 09:49:21;;;;;;;12.25;2.97;;;;;;;20.92;100.00;101203.16;5050646;28;20048;-49
2023/07/04 09:52:09;;;;;;;6.13;1.98;;;;;;;21.78;100.00;101202.31;5051448;28;20502;-49
2023/07/04 09:54:39;;;;;;;12.57;2.60;;;;;;;22.09;100.00;101202.78;5062474;28;20044;-49
2023/07/04 09:57:24;;;;;;;9.52;2.65;;;;;;;21.61;100.00;101207.19;5075838;28;20482;-48
2023/07/04 09:59:51;;;;;;;7.15;2.25;;;;;;;20.97;100.00;101216.22;5075326;28;20056;-48
2023/07/04 10:02:32;;;;;;;9.40;2.20;;;;;;;20.48;100.00;101216.06;5075358;28;20097;-52
2023/07/04 10:04:58;;;;;;;9.63;2.35;;;;;;;20.16;100.00;101159.38;5057713;28;20032;-50
2023/07/04 10:07:25;;;;;;;9.27;2.40;;;;;;;20.41;100.00;101218.28;5057544;28;20453;-50
2023/07/04 10:09:54;;;;;;;8.18;2.97;;;;;;;20.19;100.00;101208.13;5072999;28;20528;-48
2023/07/04 10:12:20;;;;;;;10.00;2.97;;;;;;;19.97;100.00;101215.84;5074969;28;20033;-50
2023/07/04 10:14:56;;;;;;;7.68;2.03;;;;;;;19.51;100.00;101151.19;5072503;28;20032;-50
2023/07/04 10:17:27;;;;;;;12.20;2.35;;;;;;;19.76;100.00;101230.56;5074997;28;20104;-50
2023/07/04 10:19:56;;;;;;;7.15;2.75;;;;;;;19.22;100.00;101168.19;5075112;28;20063;-48
2023/07/04 10:22:32;;;;;;;6.55;2.90;;;;;;;19.36;100.00;101212.66;5073779;28;20479;-49
2023/07/04 10:24:59;;;;;;;6.53;2.35;;;;;;;18.86;100.00;101155.31;5054840;28;20431;-48
2023/07/04 10:27:34;;;;;;;7.47;2.35;;;;;;;19.15;100.00;101212.19;5037146;28;20104;-51
2023/07/04 10:30:03;;;;;;;6.88;2.00;;;;;;;18.85;100.00;101174.09;5050885;28;20033;-54
2023/07/04 10:32:28;;;;;;;12.13;2.45;;;;;;;18.77;100.00;101160.34;5055179;28;20068;-53
2023/07/04 10:34:54;;;;;;;6.60;2.20;;;;;;;19.15;100.00;101211.38;5053656;28;20064;-53
2023/07/04 10:37:26;;;;;;;7.68;2.08;;;;;;;19.29;100.00;101148.16;5055079;28;20065;-51
2023/07/04 10:39:57;;;;;;;8.02;2.75;;;;;;;20.01;100.00;101209.34;5012718;28;20044;-48
2023/07/04 10:42:47;;;;;;;10.63;2.40;;;;;;;20.23;100.00;101227.47;4996548;28;20076;-51
2023/07/04 10:45:15;;;;;;;11.93;2.60;;;;;;;20.17;100.00;101223.41;4996280;28;20490;-48
2023/07/04 10:47:41;;;;;;;8.80;2.38;;;;;;;19.99;100.00;101157.81;5013465;28;20432;-52
2023/07/04 10:50:22;;;;;;;9.70;2.53;;;;;;;20.61;100.00;101216.91;5032237;28;20061;-53
2023/07/04 10:52:48;;;;;;;6.63;2.15;;;;;;;20.38;100.00;101167.69;5032193;28;20519;-52
2023/07/04 10:55:34;;;;;;;7.68;2.58;;;;;;;20.57;100.00;101157.47;5015495;28;20049;-51
2023/07/04 10:58:07;;;;;;;9.77;3.00;;;;;;;20.97;100.00;101210.88;5031414;28;20072;-52
2023/07/04 11:00:47;;;;;;;6.07;2.03;;;;;;;21.33;100.00;101221.72;5012507;28;20140;-54
2023/07/04 11:03:17;;;;;;;6.32;2.17;;;;;;;22.20;100.00;101233.16;5012451;28;20059;-51
2023/07/04 11:05:49;;;;;;;6.07;2.20;;;;;;;22.44;100.00;101225.94;5011082;28;20046;-50
2023/07/04 11:08:19;;;;;;;7.57;2.10;;;;;;;22.39;100.00;101238.84;4996047;28;20048;-54
2023/07/04 11:10:48;;;;;;;4.90;2.23;;;;;;;22.28;100.00;101197.72;5011594;28;20045;-53
2023/07/04 11:13:15;;;;;;;6.15;2.42;;;;;;;22.47;100.00;101202.56;5032610;28;20047;-53
2023/07/04 11:15:42;;;;;;;5.30;2.17;;;;;;;22.28;100.00;101181.63;5034273;28;20071;-52
2023/07/04 11:18:13;;;;;;;5.28;1.88;;;;;;;22.82;100.00;101230.28;5054502;28;20029;-49